createdAt,value
2022-08-10T00:01:52.385Z,21.10
2022-08-10T00:04:22.406Z,21.00
2022-08-10T00:06:53.084Z,20.90
2022-08-10T00:09:21.529Z,20.90
2022-08-10T00:11:49.957Z,20.90
2022-08-10T00:14:18.821Z,20.90
2022-08-10T00:16:48.895Z,20.80
2022-08-10T00:19:18.098Z,20.80
2022-08-10T00:21:46.795Z,20.80
2022-08-10T00:24:15.237Z,20.70
2022-08-10T00:27:49.875Z,20.70
2022-08-10T00:29:32.368Z,20.70
2022-08-10T00:32:02.807Z,20.60
2022-08-10T00:34:32.425Z,20.60
2022-08-10T00:37:01.233Z,20.50
2022-08-10T00:39:30.575Z,20.50
2022-08-10T00:42:07.507Z,20.50
2022-08-10T00:44:37.491Z,20.40
2022-08-10T00:47:21.421Z,20.40
2022-08-10T00:49:56.741Z,20.40
2022-08-10T00:52:25.748Z,20.40
2022-08-10T00:54:54.712Z,20.30
2022-08-10T00:57:22.978Z,20.30
2022-08-10T00:59:58.645Z,20.20
2022-08-10T01:02:30.815Z,20.20
2022-08-10T01:05:02.363Z,20.10
2022-08-10T01:07:58.712Z,20.10
2022-08-10T01:10:35.237Z,20.10
2022-08-10T01:13:11.255Z,20.00
2022-08-10T01:15:49.986Z,19.90
2022-08-10T01:18:23.992Z,19.90
2022-08-10T01:21:11.495Z,19.90
2022-08-10T01:24:06.817Z,19.90
2022-08-10T01:26:50.737Z,19.90
2022-08-10T01:30:04.483Z,19.80
2022-08-10T01:32:43.308Z,19.80
2022-08-10T01:35:16.481Z,19.80
2022-08-10T01:37:52.630Z,19.70
2022-08-10T01:40:26.135Z,19.70
2022-08-10T01:42:59.737Z,19.60
2022-08-10T01:45:45.224Z,19.60
2022-08-10T01:48:31.512Z,19.60
2022-08-10T01:51:10.445Z,19.50
2022-08-10T01:53:44.444Z,19.60
2022-08-10T01:56:15.130Z,19.50
2022-08-10T01:58:45.227Z,19.40
2022-08-10T02:01:20.074Z,19.40
2022-08-10T02:04:05.076Z,19.30
2022-08-10T02:06:38.112Z,19.30
2022-08-10T02:09:08.421Z,19.30
2022-08-10T02:12:05.786Z,19.30
2022-08-10T02:14:34.118Z,19.20
2022-08-10T02:17:04.841Z,19.10
2022-08-10T02:19:36.632Z,19.10
2022-08-10T02:22:36.771Z,19.10
2022-08-10T02:24:55.516Z,19.00
2022-08-10T02:27:25.985Z,19.00
2022-08-10T02:29:56.851Z,19.00
2022-08-10T02:32:36.170Z,19.00
2022-08-10T02:35:22.284Z,19.00
2022-08-10T02:37:54.072Z,19.00
2022-08-10T02:45:00.911Z,18.90
2022-08-10T02:45:23.257Z,18.90
2022-08-10T02:46:18.267Z,18.90
2022-08-10T02:48:55.722Z,18.90
2022-08-10T02:52:07.075Z,18.80
2022-08-10T02:54:25.463Z,18.80
2022-08-10T02:56:59.563Z,18.80
2022-08-10T02:59:39.502Z,18.70
2022-08-10T03:02:13.143Z,18.70
2022-08-10T03:04:55.441Z,18.60
2022-08-10T03:07:43.495Z,18.60
2022-08-10T03:10:16.242Z,18.60
2022-08-10T03:12:51.068Z,18.50
2022-08-10T03:15:21.742Z,18.50
2022-08-10T03:17:57.665Z,18.50
2022-08-10T03:20:37.728Z,18.50
2022-08-10T03:23:13.439Z,18.50
2022-08-10T03:25:54.298Z,18.50
2022-08-10T03:28:24.746Z,18.50
2022-08-10T03:30:53.852Z,18.40
2022-08-10T03:33:23.271Z,18.40
2022-08-10T03:36:41.560Z,18.40
2022-08-10T03:38:46.025Z,18.40
2022-08-10T03:41:16.720Z,18.30
2022-08-10T03:43:47.913Z,18.30
2022-08-10T03:46:19.929Z,18.30
2022-08-10T03:48:51.291Z,18.30
2022-08-10T03:51:21.124Z,18.30
2022-08-10T03:54:05.289Z,18.20
2022-08-10T03:56:40.134Z,18.20
2022-08-10T03:59:11.231Z,18.20
2022-08-10T04:02:43.272Z,18.20
2022-08-10T04:04:28.430Z,18.20
2022-08-10T04:06:58.118Z,18.20
2022-08-10T04:09:54.304Z,18.20
2022-08-10T04:12:20.567Z,18.10
2022-08-10T04:14:50.791Z,18.10
2022-08-10T04:18:04.864Z,18.20
2022-08-10T04:20:14.987Z,18.10
2022-08-10T04:22:45.030Z,18.10
2022-08-10T04:25:17.795Z,18.10
2022-08-10T04:27:48.814Z,18.10
2022-08-10T04:30:17.202Z,18.10
2022-08-10T04:32:48.544Z,18.10
2022-08-10T04:35:20.015Z,18.20
2022-08-10T04:37:50.633Z,18.20
2022-08-10T04:40:28.495Z,18.20
2022-08-10T04:43:02.335Z,18.20
2022-08-10T04:45:48.647Z,18.20
2022-08-10T04:48:42.717Z,18.20
2022-08-10T04:51:11.060Z,18.20
2022-08-10T04:54:02.691Z,18.20
2022-08-10T04:56:37.859Z,18.20
2022-08-10T04:59:07.315Z,18.20
2022-08-10T05:02:21.508Z,18.20
2022-08-10T05:04:36.516Z,18.20
2022-08-10T05:07:11.343Z,18.30
2022-08-10T05:10:04.226Z,18.30
2022-08-10T05:12:37.956Z,18.20
2022-08-10T05:15:08.881Z,18.30
2022-08-10T05:17:38.734Z,18.30
2022-08-10T05:20:09.626Z,18.30
2022-08-10T05:22:40.849Z,18.30
2022-08-10T05:25:11.162Z,18.30
2022-08-10T05:27:41.850Z,18.30
2022-08-10T05:30:13.533Z,18.30
2022-08-10T05:32:57.164Z,18.30
2022-08-10T05:35:26.681Z,18.40
2022-08-10T05:38:10.782Z,18.50
2022-08-10T05:40:46.884Z,18.50
2022-08-10T05:43:19.414Z,18.60
2022-08-10T05:46:19.209Z,18.60
2022-08-10T05:48:58.146Z,18.60
2022-08-10T05:51:28.398Z,18.70
2022-08-10T05:54:02.075Z,18.70
2022-08-10T05:56:53.850Z,18.70
2022-08-10T06:00:33.915Z,18.80
2022-08-10T06:02:33.641Z,18.80
2022-08-10T06:05:09.305Z,18.90
2022-08-10T06:07:42.519Z,18.80
2022-08-10T06:10:14.618Z,18.90
2022-08-10T06:13:26.838Z,18.90
2022-08-10T06:16:07.604Z,19.00
2022-08-10T06:18:36.771Z,19.00
2022-08-10T06:21:05.831Z,19.10
2022-08-10T06:23:34.589Z,19.20
2022-08-10T06:26:11.332Z,19.20
2022-08-10T06:28:58.203Z,19.20
2022-08-10T06:31:36.139Z,19.30
2022-08-10T06:34:22.130Z,19.30
2022-08-10T06:36:51.324Z,19.40
2022-08-10T06:39:36.100Z,19.40
2022-08-10T06:42:15.995Z,19.50
2022-08-10T06:44:52.789Z,19.50
2022-08-10T06:47:25.496Z,19.60
2022-08-10T06:50:00.055Z,19.70
2022-08-10T06:52:33.981Z,19.70
2022-08-10T06:55:05.153Z,19.80
2022-08-10T06:57:38.073Z,19.90
2022-08-10T07:00:08.681Z,19.90
2022-08-10T07:02:48.112Z,20.00
2022-08-10T07:05:21.341Z,20.10
2022-08-10T07:07:52.486Z,20.10
2022-08-10T07:10:22.452Z,20.20
2022-08-10T07:12:54.111Z,20.30
2022-08-10T07:15:23.488Z,20.30
2022-08-10T07:18:15.286Z,20.30
2022-08-10T07:20:45.315Z,20.40
2022-08-10T07:23:56.905Z,20.50
2022-08-10T07:26:04.255Z,20.60
2022-08-10T07:28:34.941Z,20.60
2022-08-10T07:31:04.079Z,20.70
2022-08-10T07:33:56.327Z,20.80
2022-08-10T07:36:26.236Z,20.90
2022-08-10T07:38:57.163Z,21.00
2022-08-10T07:41:32.144Z,21.00
2022-08-10T07:44:03.253Z,21.10
2022-08-10T07:46:34.594Z,21.20
2022-08-10T07:49:15.317Z,21.20
2022-08-10T07:51:54.967Z,21.30
2022-08-10T07:54:25.707Z,21.40
2022-08-10T07:56:56.978Z,21.40
2022-08-10T07:59:33.306Z,21.50
2022-08-10T08:02:04.319Z,21.60
2022-08-10T08:04:35.319Z,21.70
2022-08-10T08:07:04.626Z,21.70
2022-08-10T08:09:34.857Z,21.80
2022-08-10T08:12:04.081Z,21.90
2022-08-10T08:14:34.560Z,22.00
2022-08-10T08:17:02.879Z,22.00
2022-08-10T08:19:37.397Z,22.10
2022-08-10T08:24:07.517Z,22.20
2022-08-10T08:25:03.431Z,22.20
2022-08-10T08:27:32.656Z,22.30
2022-08-10T08:30:03.009Z,22.40
2022-08-10T08:32:33.402Z,22.50
2022-08-10T08:35:04.915Z,22.50
2022-08-10T08:38:31.279Z,22.60
2022-08-10T08:40:26.227Z,22.70
2022-08-10T08:43:31.636Z,22.80
2022-08-10T08:46:38.477Z,22.90
2022-08-10T08:50:04.907Z,23.00
2022-08-10T08:52:36.469Z,23.10
2022-08-10T08:55:52.412Z,23.20
2022-08-10T08:58:28.661Z,23.40
2022-08-10T09:01:19.015Z,23.50
2022-08-10T09:04:19.776Z,23.80
2022-08-10T09:07:59.522Z,24.10
2022-08-10T09:10:16.169Z,24.30
2022-08-10T09:12:52.843Z,24.60
2022-08-10T09:15:39.492Z,24.90
2022-08-10T09:18:13.958Z,25.20
2022-08-10T09:20:49.407Z,25.50
2022-08-10T09:24:04.212Z,25.90
2022-08-10T09:26:20.891Z,26.30
2022-08-10T09:29:12.302Z,26.80
2022-08-10T09:32:54.927Z,27.20
2022-08-10T09:36:22.799Z,27.60
2022-08-10T09:38:02.410Z,28.00
2022-08-10T09:40:59.695Z,28.40
2022-08-10T09:43:47.239Z,28.80
2022-08-10T09:46:27.196Z,29.30
2022-08-10T09:49:04.565Z,29.60
2022-08-10T09:51:45.920Z,29.90
2022-08-10T09:54:29.543Z,30.20
2022-08-10T09:57:44.930Z,30.40
2022-08-10T10:00:05.474Z,30.70
2022-08-10T10:02:43.347Z,30.90
2022-08-10T10:05:26.352Z,31.10
2022-08-10T10:08:01.905Z,31.30
2022-08-10T10:10:44.994Z,31.50
2022-08-10T10:13:54.658Z,31.60
2022-08-10T10:16:34.830Z,31.70
2022-08-10T10:19:17.414Z,31.80
2022-08-10T10:21:56.156Z,32.00
2022-08-10T10:24:34.498Z,32.10
2022-08-10T10:27:16.216Z,32.20
2022-08-10T10:29:57.319Z,32.30
2022-08-10T10:32:40.650Z,32.30
2022-08-10T10:35:17.658Z,32.50
2022-08-10T10:38:01.174Z,32.60
2022-08-10T10:40:41.494Z,32.70
2022-08-10T10:43:27.379Z,32.90
2022-08-10T10:46:05.628Z,32.90
2022-08-10T10:48:43.589Z,32.90
2022-08-10T10:51:19.822Z,32.90
2022-08-10T10:53:58.497Z,33.10
2022-08-10T10:56:36.665Z,33.10
2022-08-10T10:59:53.759Z,33.20
2022-08-10T11:02:18.176Z,33.30
2022-08-10T11:04:59.064Z,33.40
2022-08-10T11:07:35.194Z,33.50
2022-08-10T11:10:33.876Z,33.50
2022-08-10T11:14:26.970Z,33.50
2022-08-10T11:16:07.507Z,33.60
2022-08-10T11:18:53.001Z,33.30
2022-08-10T11:21:36.616Z,33.20
2022-08-10T11:24:48.163Z,33.30
2022-08-10T11:27:05.296Z,33.40
2022-08-10T11:29:41.486Z,33.50
2022-08-10T11:32:21.295Z,33.60
2022-08-10T11:35:11.057Z,33.70
2022-08-10T11:38:30.924Z,33.60
2022-08-10T11:40:45.946Z,33.70
2022-08-10T11:43:21.944Z,33.80
2022-08-10T11:45:55.447Z,33.90
2022-08-10T11:48:53.658Z,34.00
2022-08-10T11:51:31.687Z,33.70
2022-08-10T11:54:09.067Z,33.70
2022-08-10T11:56:48.604Z,33.70
2022-08-10T11:59:38.697Z,33.70
2022-08-10T12:02:09.265Z,33.70
2022-08-10T12:04:41.697Z,33.70
2022-08-10T12:10:02.499Z,33.70
2022-08-10T12:10:13.156Z,33.60
2022-08-10T12:12:47.806Z,33.70
2022-08-10T12:15:22.738Z,33.90
2022-08-10T12:17:55.912Z,34.00
2022-08-10T12:20:30.226Z,34.00
2022-08-10T12:23:03.093Z,34.00
2022-08-10T12:25:57.026Z,34.10
2022-08-10T12:28:50.545Z,34.00
2022-08-10T12:31:24.378Z,34.00
2022-08-10T12:34:04.729Z,33.90
2022-08-10T12:36:39.228Z,33.80
2022-08-10T12:39:16.775Z,33.90
2022-08-10T12:41:53.125Z,33.80
2022-08-10T12:44:41.743Z,33.80
2022-08-10T12:47:19.334Z,33.70
2022-08-10T12:50:13.786Z,33.70
2022-08-10T12:52:52.582Z,33.70
2022-08-10T12:55:22.355Z,33.70
2022-08-10T12:57:55.128Z,33.70
2022-08-10T13:00:31.295Z,33.80
2022-08-10T13:03:01.632Z,33.80
2022-08-10T13:05:31.444Z,33.70
2022-08-10T13:08:39.866Z,33.70
2022-08-10T13:11:26.282Z,33.60
2022-08-10T13:14:07.857Z,33.50
2022-08-10T13:16:38.084Z,33.40
2022-08-10T13:19:08.136Z,33.40
2022-08-10T13:21:38.698Z,33.30
2022-08-10T13:24:11.954Z,33.20
2022-08-10T13:27:10.910Z,33.30
2022-08-10T13:29:37.223Z,33.30
2022-08-10T13:32:10.776Z,33.30
2022-08-10T13:34:45.767Z,33.20
2022-08-10T13:37:18.140Z,33.10
2022-08-10T13:39:58.743Z,33.20
2022-08-10T13:42:38.930Z,33.00
2022-08-10T13:45:19.145Z,32.90
2022-08-10T13:47:51.925Z,32.80
2022-08-10T13:50:33.516Z,32.80
2022-08-10T13:53:13.992Z,32.70
2022-08-10T13:55:54.418Z,32.60
2022-08-10T13:58:27.514Z,32.40
2022-08-10T14:00:59.201Z,32.40
2022-08-10T14:03:29.549Z,32.20
2022-08-10T14:05:59.746Z,32.20
2022-08-10T14:08:31.319Z,32.20
2022-08-10T14:11:11.618Z,32.20
2022-08-10T14:13:45.461Z,32.30
2022-08-10T14:16:16.754Z,32.30
2022-08-10T14:18:46.179Z,32.40
2022-08-10T14:21:15.815Z,32.40
2022-08-10T14:23:52.992Z,32.40
2022-08-10T14:26:26.076Z,32.30
2022-08-10T14:28:58.293Z,32.20
2022-08-10T14:31:37.981Z,32.20
2022-08-10T14:34:09.572Z,32.20
2022-08-10T14:36:44.081Z,32.10
2022-08-10T14:39:20.693Z,32.10
2022-08-10T14:42:02.801Z,32.00
2022-08-10T14:44:43.031Z,32.00
2022-08-10T14:47:53.906Z,32.00
2022-08-10T14:50:05.403Z,32.00
2022-08-10T14:52:44.006Z,32.00
2022-08-10T14:55:19.637Z,32.10
2022-08-10T14:58:16.459Z,32.00
2022-08-10T15:00:42.793Z,32.00
2022-08-10T15:03:59.425Z,31.90
2022-08-10T15:06:18.018Z,31.80
2022-08-10T15:08:48.909Z,31.80
2022-08-10T15:12:15.348Z,31.80
2022-08-10T15:14:38.781Z,31.80
2022-08-10T15:16:58.404Z,31.80
2022-08-10T15:20:04.590Z,31.80
2022-08-10T15:22:42.265Z,31.80
2022-08-10T15:25:19.569Z,31.60
2022-08-10T15:27:57.319Z,31.60
2022-08-10T15:30:32.459Z,31.50
2022-08-10T15:34:01.954Z,31.40
2022-08-10T15:36:38.158Z,31.40
2022-08-10T15:39:16.656Z,31.40
2022-08-10T15:42:03.861Z,31.40
2022-08-10T15:44:39.216Z,31.30
2022-08-10T15:47:12.269Z,31.30
2022-08-10T15:49:51.789Z,31.10
2022-08-10T15:53:00.082Z,31.10
2022-08-10T15:55:43.918Z,31.00
2022-08-10T15:58:10.373Z,31.00
2022-08-10T16:00:42.072Z,30.90
2022-08-10T16:03:17.253Z,30.90
2022-08-10T16:06:01.737Z,30.90
2022-08-10T16:08:56.421Z,30.80
2022-08-10T16:11:38.816Z,30.60
2022-08-10T16:14:14.524Z,30.60
2022-08-10T16:16:47.201Z,30.50
2022-08-10T16:19:23.864Z,30.50
2022-08-10T16:22:02.386Z,30.40
2022-08-10T16:24:38.510Z,30.40
2022-08-10T16:27:08.490Z,30.30
2022-08-10T16:29:54.466Z,30.20
2022-08-10T16:32:26.627Z,30.10
2022-08-10T16:34:56.485Z,30.00
2022-08-10T16:37:57.404Z,29.90
2022-08-10T16:40:24.047Z,29.80
2022-08-10T16:42:53.593Z,29.70
2022-08-10T16:45:30.031Z,29.60
2022-08-10T16:47:59.831Z,29.60
2022-08-10T16:50:30.180Z,29.50
2022-08-10T16:53:03.699Z,29.40
2022-08-10T16:55:47.396Z,29.30
2022-08-10T16:58:20.666Z,29.30
2022-08-10T17:00:51.542Z,29.20
2022-08-10T17:04:07.930Z,29.10
2022-08-10T17:06:22.384Z,29.10
2022-08-10T17:08:54.001Z,29.00
2022-08-10T17:11:31.368Z,29.00
2022-08-10T17:14:01.840Z,28.90
2022-08-10T17:16:36.516Z,28.90
2022-08-10T17:19:11.674Z,28.90
2022-08-10T17:21:51.391Z,28.90
2022-08-10T17:24:25.182Z,28.80
2022-08-10T17:26:58.232Z,28.80
2022-08-10T17:29:58.859Z,28.70
2022-08-10T17:32:28.890Z,28.70
2022-08-10T17:34:59.949Z,28.60
2022-08-10T17:37:34.298Z,28.60
2022-08-10T17:40:06.908Z,28.50
2022-08-10T17:42:37.276Z,28.50
2022-08-10T17:45:07.715Z,28.40
2022-08-10T17:47:36.457Z,28.30
2022-08-10T17:50:05.182Z,28.30
2022-08-10T17:52:34.292Z,28.30
2022-08-10T17:55:05.955Z,28.20
2022-08-10T17:57:39.063Z,28.20
2022-08-10T18:00:14.433Z,28.10
2022-08-10T18:02:46.203Z,28.10
2022-08-10T18:05:15.533Z,28.00
2022-08-10T18:07:48.749Z,27.90
2022-08-10T18:10:20.436Z,27.80
2022-08-10T18:12:52.524Z,27.80
2022-08-10T18:15:24.585Z,27.80
2022-08-10T18:17:59.123Z,27.70
2022-08-10T18:20:34.965Z,27.70
2022-08-10T18:23:04.028Z,27.60
2022-08-10T18:25:36.082Z,27.60
2022-08-10T18:28:12.297Z,27.50
2022-08-10T18:30:48.128Z,27.50
2022-08-10T18:33:18.546Z,27.40
2022-08-10T18:35:47.410Z,27.40
2022-08-10T18:38:17.334Z,27.30
2022-08-10T18:40:53.968Z,27.20
2022-08-10T18:44:06.977Z,27.20
2022-08-10T18:46:23.054Z,27.10
2022-08-10T18:48:54.822Z,27.00
2022-08-10T18:51:27.368Z,27.00
2022-08-10T18:54:01.306Z,26.90
2022-08-10T18:56:45.363Z,26.80
2022-08-10T18:59:39.530Z,26.70
2022-08-10T19:03:11.118Z,26.70
2022-08-10T19:06:00.240Z,26.60
2022-08-10T19:08:49.441Z,26.50
2022-08-10T19:11:26.278Z,26.50
2022-08-10T19:14:04.498Z,26.40
2022-08-10T19:16:47.944Z,26.40
2022-08-10T19:19:30.267Z,26.30
2022-08-10T19:22:07.577Z,26.20
2022-08-10T19:24:45.773Z,26.20
2022-08-10T19:27:29.280Z,26.20
2022-08-10T19:30:09.757Z,26.10
2022-08-10T19:32:56.054Z,26.10
2022-08-10T19:35:34.547Z,26.10
2022-08-10T19:38:33.164Z,26.00
2022-08-10T19:41:11.896Z,25.90
2022-08-10T19:44:01.762Z,25.90
2022-08-10T19:46:40.909Z,25.90
2022-08-10T19:49:23.776Z,25.80
2022-08-10T19:51:57.682Z,25.80
2022-08-10T19:54:37.201Z,25.70
2022-08-10T19:57:12.340Z,25.70
2022-08-10T20:00:17.100Z,25.60
2022-08-10T20:02:49.051Z,25.60
2022-08-10T20:05:29.564Z,25.50
2022-08-10T20:08:05.743Z,25.50
2022-08-10T20:10:42.183Z,25.40
2022-08-10T20:13:16.389Z,25.30
2022-08-10T20:15:49.248Z,25.30
2022-08-10T20:18:25.180Z,25.20
2022-08-10T20:21:01.231Z,25.20
2022-08-10T20:23:36.744Z,25.10
2022-08-10T20:26:12.595Z,25.00
2022-08-10T20:28:44.745Z,25.00
2022-08-10T20:31:17.505Z,24.90
2022-08-10T20:34:01.333Z,24.90
2022-08-10T20:36:34.561Z,24.90
2022-08-10T20:39:17.637Z,24.80
2022-08-10T20:42:07.737Z,24.70
2022-08-10T20:44:57.784Z,24.70
2022-08-10T20:47:37.500Z,24.60
2022-08-10T20:50:30.906Z,24.60
2022-08-10T20:53:04.298Z,24.50
2022-08-10T20:55:47.828Z,24.40
2022-08-10T20:58:35.976Z,24.40
2022-08-10T21:01:17.299Z,24.30
2022-08-10T21:04:13.505Z,24.30
2022-08-10T21:07:22.139Z,24.30
2022-08-10T21:10:07.283Z,24.20
2022-08-10T21:12:51.536Z,24.20
2022-08-10T21:15:29.282Z,24.10
2022-08-10T21:18:20.586Z,24.10
2022-08-10T21:23:52.207Z,23.90
2022-08-10T21:25:42.191Z,24.00
2022-08-10T21:26:41.202Z,23.90
2022-08-10T21:29:39.664Z,23.90
2022-08-10T21:32:22.198Z,23.90
2022-08-10T21:35:02.585Z,23.80
2022-08-10T21:37:40.300Z,23.80
2022-08-10T21:41:19.086Z,23.70
2022-08-10T21:44:08.499Z,23.70
2022-08-10T21:47:06.316Z,23.60
2022-08-10T21:50:07.298Z,23.50
2022-08-10T21:53:03.958Z,23.50
2022-08-10T21:56:02.919Z,23.40
2022-08-10T21:58:55.195Z,23.40
2022-08-10T22:01:53.306Z,23.40
2022-08-10T22:04:40.168Z,23.20
2022-08-10T22:07:36.510Z,23.20
2022-08-10T22:10:25.692Z,23.20
2022-08-10T22:13:12.822Z,23.10
2022-08-10T22:16:10.669Z,23.10
2022-08-10T22:19:03.718Z,23.10
2022-08-10T22:22:02.377Z,23.10
2022-08-10T22:25:04.897Z,23.00
2022-08-10T22:28:02.647Z,23.00
2022-08-10T22:31:28.036Z,22.90
2022-08-10T22:34:15.448Z,22.90
2022-08-10T22:37:17.469Z,22.90
2022-08-10T22:40:18.542Z,22.80
2022-08-10T22:43:09.880Z,22.70
2022-08-10T22:46:02.749Z,22.70
2022-08-10T22:48:48.410Z,22.70
2022-08-10T22:51:23.852Z,22.60
2022-08-10T22:54:30.463Z,22.60
2022-08-10T22:57:18.980Z,22.50
2022-08-10T22:59:47.891Z,22.50
2022-08-10T23:02:33.251Z,22.40
2022-08-10T23:05:10.335Z,22.40
2022-08-10T23:07:50.303Z,22.40
2022-08-10T23:10:21.842Z,22.40
2022-08-10T23:12:56.617Z,22.30
2022-08-10T23:15:48.721Z,22.30
2022-08-10T23:18:50.992Z,22.30
2022-08-10T23:21:20.687Z,22.20
2022-08-10T23:23:54.951Z,22.20
2022-08-10T23:26:26.357Z,22.10
2022-08-10T23:29:00.951Z,22.10
2022-08-10T23:32:01.170Z,22.00
2022-08-10T23:34:32.396Z,21.90
2022-08-10T23:37:02.352Z,21.90
2022-08-10T23:39:38.164Z,21.90
2022-08-10T23:42:09.491Z,21.80
2022-08-10T23:44:42.755Z,21.80
2022-08-10T23:47:13.509Z,21.80
2022-08-10T23:49:44.055Z,21.80
2022-08-10T23:52:14.900Z,21.70
2022-08-10T23:54:50.120Z,21.70
2022-08-10T23:57:21.376Z,21.60
2022-08-10T23:59:56.918Z,21.60
